createdAt,value
2019-05-22T00:01:50.016Z,4.30
2019-05-22T00:04:27.651Z,4.03
2019-05-22T00:06:59.343Z,3.83
2019-05-22T00:09:37.259Z,3.90
2019-05-22T00:12:10.161Z,4.03
2019-05-22T00:14:40.592Z,3.87
2019-05-22T00:17:11.630Z,4.03
2019-05-22T00:19:42.296Z,3.67
2019-05-22T00:22:19.471Z,3.90
2019-05-22T00:24:50.337Z,3.70
2019-05-22T00:27:20.893Z,3.80
2019-05-22T00:29:51.438Z,4.00
2019-05-22T00:32:21.172Z,3.83
2019-05-22T00:34:50.849Z,3.53
2019-05-22T00:37:20.185Z,3.73
2019-05-22T00:39:49.535Z,3.53
2019-05-22T00:42:19.057Z,3.83
2019-05-22T00:44:48.958Z,3.77
2019-05-22T00:47:19.997Z,3.70
2019-05-22T00:49:52.473Z,4.47
2019-05-22T00:52:44.946Z,4.33
2019-05-22T00:55:28.360Z,4.67
2019-05-22T00:57:59.699Z,3.90
2019-05-22T01:00:30.813Z,4.00
2019-05-22T01:03:02.565Z,4.37
2019-05-22T01:05:32.580Z,3.77
2019-05-22T01:08:03.924Z,4.27
2019-05-22T01:10:33.566Z,3.90
2019-05-22T01:13:04.512Z,4.13
2019-05-22T01:15:35.836Z,3.47
2019-05-22T01:18:10.285Z,4.00
2019-05-22T01:20:41.604Z,3.50
2019-05-22T01:23:14.209Z,3.50
2019-05-22T01:25:44.450Z,3.53
2019-05-22T01:28:16.501Z,3.30
2019-05-22T01:30:58.327Z,3.30
2019-05-22T01:33:35.421Z,3.13
2019-05-22T01:36:06.431Z,3.53
2019-05-22T01:38:39.294Z,3.40
2019-05-22T01:41:13.355Z,3.80
2019-05-22T01:43:43.783Z,3.67
2019-05-22T01:46:15.213Z,3.60
2019-05-22T01:48:45.709Z,3.20
2019-05-22T01:51:16.633Z,3.30
2019-05-22T01:53:46.763Z,3.20
2019-05-22T01:56:17.803Z,3.80
2019-05-22T01:58:47.771Z,3.67
2019-05-22T02:01:17.706Z,4.33
2019-05-22T02:03:51.513Z,4.50
2019-05-22T02:06:23.388Z,4.10
2019-05-22T02:09:06.131Z,4.00
2019-05-22T02:11:35.710Z,4.00
2019-05-22T02:14:11.812Z,3.70
2019-05-22T02:16:56.273Z,3.70
2019-05-22T02:19:16.624Z,3.37
2019-05-22T02:21:47.806Z,3.20
2019-05-22T02:24:18.545Z,3.10
2019-05-22T02:26:48.183Z,3.40
2019-05-22T02:29:19.814Z,3.00
2019-05-22T02:31:54.991Z,3.10
2019-05-22T02:34:22.168Z,2.50
2019-05-22T02:36:53.719Z,2.80
2019-05-22T02:39:31.657Z,2.63
2019-05-22T02:42:16.492Z,2.70
2019-05-22T02:44:47.013Z,2.70
2019-05-22T02:47:20.669Z,2.70
2019-05-22T02:49:51.000Z,2.57
2019-05-22T02:52:23.035Z,3.00
2019-05-22T02:54:52.435Z,2.63
2019-05-22T02:57:23.176Z,2.53
2019-05-22T02:59:53.397Z,2.10
2019-05-22T03:02:23.763Z,2.50
2019-05-22T03:04:59.937Z,2.50
2019-05-22T03:07:31.904Z,2.70
2019-05-22T03:10:03.552Z,3.10
2019-05-22T03:12:34.907Z,3.00
2019-05-22T03:15:07.682Z,3.00
2019-05-22T03:17:40.925Z,3.20
2019-05-22T03:20:17.402Z,3.73
2019-05-22T03:22:49.667Z,2.80
2019-05-22T03:25:20.106Z,3.10
2019-05-22T03:27:50.850Z,2.90
2019-05-22T03:30:27.221Z,3.10
2019-05-22T03:32:59.279Z,2.87
2019-05-22T03:35:31.867Z,2.80
2019-05-22T03:38:01.913Z,2.70
2019-05-22T03:40:32.098Z,2.80
2019-05-22T03:43:07.313Z,2.50
2019-05-22T03:45:37.398Z,2.97
2019-05-22T03:48:07.145Z,2.87
2019-05-22T03:50:37.726Z,2.47
2019-05-22T03:53:10.264Z,2.70
2019-05-22T03:55:40.213Z,2.37
2019-05-22T03:58:10.103Z,2.80
2019-05-22T04:00:43.221Z,2.60
2019-05-22T04:03:11.369Z,2.70
2019-05-22T04:05:40.636Z,2.30
2019-05-22T04:08:11.069Z,2.47
2019-05-22T04:11:02.800Z,2.77
2019-05-22T04:13:33.319Z,2.33
2019-05-22T04:16:08.893Z,2.30
2019-05-22T04:18:40.964Z,2.50
2019-05-22T04:21:10.274Z,3.00
2019-05-22T04:23:40.183Z,2.47
2019-05-22T04:26:11.554Z,2.57
2019-05-22T04:28:49.716Z,2.20
2019-05-22T04:31:21.588Z,2.10
2019-05-22T04:33:51.520Z,2.20
2019-05-22T04:36:24.344Z,2.17
2019-05-22T04:38:54.371Z,2.00
2019-05-22T04:41:24.503Z,2.10
2019-05-22T04:43:55.275Z,2.20
2019-05-22T04:46:25.332Z,2.40
2019-05-22T04:48:55.496Z,2.10
2019-05-22T04:51:27.353Z,2.30
2019-05-22T04:53:58.165Z,2.20
2019-05-22T04:56:28.770Z,2.03
2019-05-22T04:58:59.505Z,2.30
2019-05-22T05:01:31.015Z,2.03
2019-05-22T05:04:01.796Z,2.17
2019-05-22T05:06:33.535Z,2.50
2019-05-22T05:09:04.054Z,1.93
2019-05-22T05:11:34.210Z,1.80
2019-05-22T05:14:03.587Z,2.27
2019-05-22T05:16:32.956Z,2.17
2019-05-22T05:19:02.559Z,1.80
2019-05-22T05:21:32.595Z,2.23
2019-05-22T05:24:02.209Z,4.23
2019-05-22T05:26:31.622Z,5.10
2019-05-22T05:29:00.920Z,4.60
2019-05-22T05:31:33.486Z,3.60
2019-05-22T05:34:25.386Z,2.67
2019-05-22T05:36:55.786Z,2.80
2019-05-22T05:39:37.878Z,2.40
2019-05-22T05:42:09.712Z,2.30
2019-05-22T05:44:39.069Z,2.17
2019-05-22T05:47:09.369Z,1.93
2019-05-22T05:49:41.785Z,2.10
2019-05-22T05:52:13.374Z,2.00
2019-05-22T05:54:43.677Z,2.20
2019-05-22T05:57:35.899Z,2.90
2019-05-22T06:00:10.345Z,2.63
2019-05-22T06:02:54.006Z,2.00
2019-05-22T06:05:10.786Z,1.90
2019-05-22T06:07:40.578Z,1.80
2019-05-22T06:10:25.529Z,2.17
2019-05-22T06:12:54.869Z,1.90
2019-05-22T06:15:45.795Z,1.97
2019-05-22T06:18:11.170Z,2.23
2019-05-22T06:20:40.492Z,2.10
2019-05-22T06:23:26.574Z,2.20
2019-05-22T06:25:58.432Z,1.73
2019-05-22T06:28:29.746Z,2.30
2019-05-22T06:31:02.051Z,2.70
2019-05-22T06:33:34.093Z,2.53
2019-05-22T06:36:09.188Z,2.60
2019-05-22T06:39:00.648Z,2.40
2019-05-22T06:41:33.035Z,1.83
2019-05-22T06:44:30.387Z,2.03
2019-05-22T06:47:08.398Z,2.00
2019-05-22T06:49:40.478Z,1.90
2019-05-22T06:52:11.005Z,2.10
2019-05-22T06:54:40.907Z,1.80
2019-05-22T06:57:18.418Z,1.80
2019-05-22T07:00:10.741Z,3.13
2019-05-22T07:02:23.491Z,2.47
2019-05-22T07:04:53.617Z,2.47
2019-05-22T07:07:24.915Z,1.97
2019-05-22T07:09:56.663Z,2.30
2019-05-22T07:12:30.574Z,2.20
2019-05-22T07:15:07.385Z,2.30
2019-05-22T07:17:40.008Z,1.93
2019-05-22T07:20:11.217Z,2.63
2019-05-22T07:22:41.875Z,2.50
2019-05-22T07:25:12.161Z,2.30
2019-05-22T07:27:42.515Z,2.43
2019-05-22T07:30:13.052Z,2.03
2019-05-22T07:32:42.752Z,2.33
2019-05-22T07:35:13.200Z,1.80
2019-05-22T07:37:45.174Z,1.50
2019-05-22T07:40:18.575Z,2.30
2019-05-22T07:42:50.172Z,2.50
2019-05-22T07:45:21.517Z,2.70
2019-05-22T07:47:52.082Z,1.73
2019-05-22T07:50:23.030Z,2.20
2019-05-22T07:52:53.772Z,2.10
2019-05-22T07:55:24.338Z,2.40
2019-05-22T07:58:06.283Z,2.33
2019-05-22T08:00:36.491Z,2.87
2019-05-22T08:03:06.900Z,2.80
2019-05-22T08:05:39.541Z,2.43
2019-05-22T08:08:09.035Z,3.20
2019-05-22T08:10:39.835Z,2.77
2019-05-22T08:13:10.085Z,2.57
2019-05-22T08:15:40.156Z,3.23
2019-05-22T08:18:09.912Z,2.70
2019-05-22T08:20:40.535Z,2.93
2019-05-22T08:23:11.317Z,3.00
2019-05-22T08:25:40.691Z,2.80
2019-05-22T08:28:10.457Z,2.83
2019-05-22T08:30:39.862Z,2.47
2019-05-22T08:33:12.837Z,2.80
2019-05-22T08:35:42.972Z,2.80
2019-05-22T08:38:14.137Z,2.10
2019-05-22T08:40:45.211Z,2.50
2019-05-22T08:43:15.239Z,2.30
2019-05-22T08:45:44.739Z,2.37
2019-05-22T08:48:15.260Z,2.30
2019-05-22T08:50:45.983Z,2.27
2019-05-22T08:53:16.694Z,2.03
2019-05-22T08:55:46.745Z,2.10
2019-05-22T08:58:16.400Z,2.00
2019-05-22T09:00:47.682Z,1.90
2019-05-22T09:03:17.551Z,1.60
2019-05-22T09:05:46.943Z,2.00
2019-05-22T09:08:17.014Z,1.80
2019-05-22T09:10:47.093Z,2.10
2019-05-22T09:13:16.479Z,1.90
2019-05-22T09:15:48.353Z,2.03
2019-05-22T09:18:23.860Z,1.80
2019-05-22T09:20:53.719Z,1.90
2019-05-22T09:23:23.549Z,1.60
2019-05-22T09:25:52.912Z,1.73
2019-05-22T09:28:22.308Z,1.70
2019-05-22T09:30:51.669Z,1.30
2019-05-22T09:33:21.807Z,1.70
2019-05-22T09:35:51.558Z,1.80
2019-05-22T09:38:21.146Z,1.57
2019-05-22T09:40:50.671Z,1.50
2019-05-22T09:43:20.569Z,1.70
2019-05-22T09:45:49.955Z,1.50
2019-05-22T09:48:20.112Z,1.37
2019-05-22T09:50:49.504Z,1.30
2019-05-22T09:53:19.824Z,1.50
2019-05-22T09:55:49.982Z,1.63
2019-05-22T09:58:19.690Z,1.43
2019-05-22T10:00:49.118Z,1.60
2019-05-22T10:03:18.768Z,1.27
2019-05-22T10:05:48.766Z,1.50
2019-05-22T10:08:18.119Z,1.80
2019-05-22T10:10:47.657Z,1.53
2019-05-22T10:13:18.049Z,1.60
2019-05-22T10:15:47.361Z,1.57
2019-05-22T10:18:17.037Z,1.73
2019-05-22T10:20:47.024Z,1.60
2019-05-22T10:23:17.158Z,1.63
2019-05-22T10:25:46.599Z,1.50
2019-05-22T10:28:17.111Z,1.80
2019-05-22T10:30:46.464Z,1.70
2019-05-22T10:33:15.945Z,1.67
2019-05-22T10:35:45.875Z,2.10
2019-05-22T10:38:15.512Z,2.07
2019-05-22T10:40:45.490Z,1.80
2019-05-22T10:43:15.374Z,1.93
2019-05-22T10:45:45.798Z,1.80
2019-05-22T10:48:15.325Z,2.03
2019-05-22T10:50:44.799Z,1.70
2019-05-22T10:53:32.261Z,1.97
2019-05-22T10:55:46.913Z,1.80
2019-05-22T10:58:16.511Z,1.60
2019-05-22T11:00:46.212Z,1.33
2019-05-22T11:03:17.579Z,1.70
2019-05-22T11:06:03.539Z,1.70
2019-05-22T11:08:19.184Z,1.80
2019-05-22T11:10:48.671Z,2.07
2019-05-22T11:13:18.230Z,1.73
2019-05-22T11:15:47.604Z,1.80
2019-05-22T11:18:17.631Z,2.00
2019-05-22T11:20:47.549Z,1.70
2019-05-22T11:23:17.406Z,1.30
2019-05-22T11:25:47.132Z,1.20
2019-05-22T11:28:16.840Z,1.40
2019-05-22T11:30:46.779Z,1.60
2019-05-22T11:33:16.416Z,1.80
2019-05-22T11:35:46.447Z,1.60
2019-05-22T11:38:16.195Z,1.67
2019-05-22T11:40:45.969Z,1.20
2019-05-22T11:43:15.963Z,1.80
2019-05-22T11:45:46.078Z,1.60
2019-05-22T11:48:15.443Z,2.03
2019-05-22T11:50:45.890Z,2.17
2019-05-22T11:53:16.282Z,2.30
2019-05-22T11:55:46.553Z,2.30
2019-05-22T11:58:16.514Z,2.17
2019-05-22T12:00:46.293Z,2.23
2019-05-22T12:03:15.790Z,2.30
2019-05-22T12:05:46.535Z,2.13
2019-05-22T12:08:16.440Z,2.20
2019-05-22T12:10:45.865Z,2.30
2019-05-22T12:13:16.951Z,2.43
2019-05-22T12:15:46.264Z,2.10
2019-05-22T12:18:16.170Z,1.53
2019-05-22T12:20:45.583Z,2.03
2019-05-22T12:23:14.864Z,1.70
2019-05-22T12:25:44.256Z,2.00
2019-05-22T12:28:13.627Z,2.10
2019-05-22T12:30:44.058Z,2.00
2019-05-22T12:33:14.469Z,1.80
2019-05-22T12:35:44.933Z,2.20
2019-05-22T12:38:15.059Z,2.20
2019-05-22T12:40:45.331Z,2.00
2019-05-22T12:43:16.055Z,2.20
2019-05-22T12:45:46.094Z,1.90
2019-05-22T12:48:15.981Z,2.00
2019-05-22T12:50:45.698Z,1.80
2019-05-22T12:53:16.928Z,1.83
2019-05-22T12:55:46.818Z,1.70
2019-05-22T12:58:16.793Z,1.70
2019-05-22T13:00:46.323Z,1.70
2019-05-22T13:03:16.197Z,1.87
2019-05-22T13:05:47.254Z,1.80
2019-05-22T13:08:17.412Z,1.83
2019-05-22T13:10:48.170Z,2.07
2019-05-22T13:13:18.003Z,1.70
2019-05-22T13:15:47.437Z,1.90
2019-05-22T13:18:20.596Z,3.03
2019-05-22T13:20:51.500Z,3.23
2019-05-22T13:23:24.928Z,2.10
2019-05-22T13:25:55.082Z,1.60
2019-05-22T13:28:27.774Z,1.50
2019-05-22T13:30:58.294Z,1.60
2019-05-22T13:33:29.281Z,1.50
2019-05-22T13:35:59.592Z,1.70
2019-05-22T13:38:29.516Z,1.60
2019-05-22T13:40:59.388Z,1.43
2019-05-22T13:43:29.934Z,1.40
2019-05-22T13:45:59.462Z,1.50
2019-05-22T13:48:29.525Z,1.17
2019-05-22T13:51:00.381Z,1.30
2019-05-22T13:53:30.186Z,1.60
2019-05-22T13:55:59.880Z,1.60
2019-05-22T13:58:31.038Z,1.60
2019-05-22T14:01:00.756Z,1.90
2019-05-22T14:03:30.325Z,1.50
2019-05-22T14:06:00.103Z,1.60
2019-05-22T14:08:30.230Z,1.40
2019-05-22T14:10:59.950Z,1.50
2019-05-22T14:13:30.103Z,1.70
2019-05-22T14:15:59.804Z,1.40
2019-05-22T14:18:29.460Z,1.50
2019-05-22T14:20:58.984Z,1.60
2019-05-22T14:23:29.188Z,1.80
2019-05-22T14:25:58.862Z,1.90
2019-05-22T14:28:28.733Z,1.90
2019-05-22T14:30:58.589Z,1.90
2019-05-22T14:33:28.576Z,1.90
2019-05-22T14:35:58.882Z,1.60
2019-05-22T14:38:28.784Z,1.90
2019-05-22T14:40:58.815Z,1.80
2019-05-22T14:43:30.056Z,1.67
2019-05-22T14:45:59.753Z,1.60
2019-05-22T14:48:29.269Z,1.50
2019-05-22T14:50:59.640Z,1.50
2019-05-22T14:53:29.903Z,1.70
2019-05-22T14:56:02.064Z,1.73
2019-05-22T14:58:31.543Z,1.90
2019-05-22T15:01:01.076Z,1.20
2019-05-22T15:03:31.838Z,1.50
2019-05-22T15:06:01.306Z,1.50
2019-05-22T15:08:30.867Z,1.90
2019-05-22T15:11:01.117Z,1.70
2019-05-22T15:13:30.809Z,1.40
2019-05-22T15:16:00.951Z,1.23
2019-05-22T15:18:30.530Z,1.17
2019-05-22T15:21:01.523Z,1.40
2019-05-22T15:23:33.678Z,1.50
2019-05-22T15:26:04.144Z,1.30
2019-05-22T15:28:33.614Z,1.57
2019-05-22T15:31:03.785Z,1.67
2019-05-22T15:33:35.050Z,1.70
2019-05-22T15:36:08.397Z,1.73
2019-05-22T15:38:41.159Z,2.43
2019-05-22T15:41:11.545Z,2.50
2019-05-22T15:43:43.440Z,2.47
2019-05-22T15:46:15.668Z,2.30
2019-05-22T15:48:47.523Z,2.37
2019-05-22T15:51:21.471Z,2.27
2019-05-22T15:53:52.358Z,1.93
2019-05-22T15:56:22.131Z,1.90
2019-05-22T15:58:55.338Z,1.80
2019-05-22T16:01:26.078Z,1.80
2019-05-22T16:03:58.227Z,1.70
2019-05-22T16:06:30.327Z,1.77
2019-05-22T16:09:02.286Z,1.90
2019-05-22T16:11:31.732Z,2.20
2019-05-22T16:14:03.428Z,2.00
2019-05-22T16:16:34.371Z,1.93
2019-05-22T16:19:07.425Z,1.90
2019-05-22T16:21:40.519Z,1.60
2019-05-22T16:24:11.607Z,1.80
2019-05-22T16:26:42.430Z,2.67
2019-05-22T16:29:12.927Z,4.20
2019-05-22T16:31:44.051Z,3.30
2019-05-22T16:34:14.811Z,1.60
2019-05-22T16:36:45.862Z,1.50
2019-05-22T16:39:16.495Z,1.80
2019-05-22T16:41:47.347Z,1.70
2019-05-22T16:44:17.450Z,1.90
2019-05-22T16:46:48.107Z,1.90
2019-05-22T16:49:17.972Z,1.57
2019-05-22T16:51:49.041Z,1.50
2019-05-22T16:54:21.192Z,1.27
2019-05-22T16:56:51.736Z,1.67
2019-05-22T16:59:22.220Z,1.43
2019-05-22T17:01:59.191Z,1.63
2019-05-22T17:04:22.911Z,1.50
2019-05-22T17:06:52.858Z,1.50
2019-05-22T17:09:23.439Z,1.40
2019-05-22T17:11:53.395Z,1.40
2019-05-22T17:14:25.244Z,1.30
2019-05-22T17:16:55.093Z,1.50
2019-05-22T17:19:27.520Z,1.50
2019-05-22T17:21:56.973Z,1.33
2019-05-22T17:24:27.435Z,1.90
2019-05-22T17:26:57.427Z,1.77
2019-05-22T17:29:29.242Z,2.20
2019-05-22T17:31:59.475Z,2.20
2019-05-22T17:34:32.892Z,2.43
2019-05-22T17:37:06.606Z,2.20
2019-05-22T17:39:39.307Z,2.40
2019-05-22T17:42:12.701Z,2.00
2019-05-22T17:44:46.004Z,2.00
2019-05-22T17:47:18.919Z,2.20
2019-05-22T17:49:49.929Z,1.83
2019-05-22T17:52:20.973Z,2.03
2019-05-22T17:54:52.624Z,2.43
2019-05-22T17:57:22.827Z,2.40
2019-05-22T17:59:53.696Z,2.10
2019-05-22T18:02:25.500Z,2.00
2019-05-22T18:04:55.562Z,1.90
2019-05-22T18:07:25.981Z,2.10
2019-05-22T18:09:56.068Z,2.20
2019-05-22T18:12:27.269Z,2.10
2019-05-22T18:14:57.530Z,2.67
2019-05-22T18:17:28.068Z,3.03
2019-05-22T18:19:57.643Z,2.50
2019-05-22T18:22:27.071Z,2.30
2019-05-22T18:24:56.757Z,2.00
2019-05-22T18:27:26.701Z,2.20
2019-05-22T18:29:56.094Z,2.67
2019-05-22T18:32:26.295Z,2.30
2019-05-22T18:34:55.762Z,2.67
2019-05-22T18:37:25.165Z,3.97
2019-05-22T18:39:55.154Z,3.30
2019-05-22T18:42:25.219Z,2.77
2019-05-22T18:44:54.643Z,2.60
2019-05-22T18:47:24.273Z,2.40
2019-05-22T18:49:53.661Z,2.37
2019-05-22T18:52:38.198Z,2.40
2019-05-22T18:54:54.533Z,2.63
2019-05-22T18:57:24.199Z,2.60
2019-05-22T18:59:59.962Z,2.40
2019-05-22T19:02:25.435Z,2.83
2019-05-22T19:04:55.025Z,3.67
2019-05-22T19:07:24.796Z,3.63
2019-05-22T19:09:54.193Z,3.40
2019-05-22T19:12:24.262Z,3.53
2019-05-22T19:14:53.931Z,2.37
2019-05-22T19:17:23.926Z,1.90
2019-05-22T19:19:53.458Z,1.83
2019-05-22T19:22:23.395Z,1.60
2019-05-22T19:24:52.990Z,1.50
2019-05-22T19:27:22.463Z,1.43
2019-05-22T19:29:51.860Z,1.80
2019-05-22T19:32:21.380Z,2.00
2019-05-22T19:34:50.795Z,1.90
2019-05-22T19:37:20.820Z,1.60
2019-05-22T19:39:50.986Z,1.80
2019-05-22T19:42:20.548Z,2.83
2019-05-22T19:44:49.931Z,2.80
2019-05-22T19:47:20.958Z,2.20
2019-05-22T19:49:50.320Z,1.40
2019-05-22T19:52:22.622Z,1.20
2019-05-22T19:54:52.790Z,1.23
2019-05-22T19:57:24.184Z,1.10
2019-05-22T19:59:54.380Z,1.40
2019-05-22T20:02:24.178Z,1.20
2019-05-22T20:04:54.057Z,1.47
2019-05-22T20:07:23.463Z,1.47
2019-05-22T20:09:53.729Z,1.10
2019-05-22T20:12:25.013Z,1.10
2019-05-22T20:14:54.685Z,2.20
2019-05-22T20:17:24.360Z,2.30
2019-05-22T20:19:55.626Z,2.47
2019-05-22T20:22:26.299Z,2.63
2019-05-22T20:24:55.923Z,2.90
2019-05-22T20:27:25.577Z,2.70
2019-05-22T20:29:55.023Z,2.33
2019-05-22T20:32:25.375Z,2.60
2019-05-22T20:34:54.745Z,2.37
2019-05-22T20:37:25.717Z,2.30
2019-05-22T20:39:55.514Z,2.60
2019-05-22T20:42:25.727Z,2.30
2019-05-22T20:44:56.113Z,2.50
2019-05-22T20:47:27.146Z,2.17
2019-05-22T20:49:57.602Z,2.23
2019-05-22T20:52:30.150Z,2.50
2019-05-22T20:55:01.134Z,2.60
2019-05-22T20:57:32.369Z,2.90
2019-05-22T21:00:02.069Z,2.70
2019-05-22T21:02:33.048Z,2.80
2019-05-22T21:05:03.719Z,6.13
2019-05-22T21:07:36.132Z,6.90
2019-05-22T21:10:09.093Z,4.80
2019-05-22T21:12:39.282Z,4.87
2019-05-22T21:15:10.394Z,3.97
2019-05-22T21:17:42.101Z,3.67
2019-05-22T21:20:14.659Z,3.60
2019-05-22T21:22:44.806Z,4.13
2019-05-22T21:25:14.935Z,3.67
2019-05-22T21:27:44.620Z,3.67
2019-05-22T21:30:15.111Z,3.33
2019-05-22T21:32:45.393Z,3.67
2019-05-22T21:35:17.161Z,3.50
2019-05-22T21:37:46.750Z,4.10
2019-05-22T21:40:18.130Z,3.97
2019-05-22T21:42:47.705Z,3.97
2019-05-22T21:45:17.715Z,3.70
2019-05-22T21:47:47.162Z,4.20
2019-05-22T21:50:17.794Z,3.83
2019-05-22T21:52:49.037Z,3.40
2019-05-22T21:55:20.976Z,4.17
2019-05-22T21:57:51.445Z,3.80
2019-05-22T22:00:39.958Z,4.60
2019-05-22T22:03:12.925Z,4.30
2019-05-22T22:05:42.586Z,4.10
2019-05-22T22:08:12.637Z,5.40
2019-05-22T22:10:43.450Z,5.17
2019-05-22T22:13:13.583Z,4.80
2019-05-22T22:15:46.593Z,4.60
2019-05-22T22:18:29.969Z,5.37
2019-05-22T22:20:59.599Z,6.87
2019-05-22T22:23:29.477Z,6.77
2019-05-22T22:26:00.409Z,6.03
2019-05-22T22:28:31.243Z,7.40
2019-05-22T22:31:10.367Z,5.83
2019-05-22T22:33:40.451Z,4.30
2019-05-22T22:36:10.780Z,4.40
2019-05-22T22:38:41.837Z,4.00
2019-05-22T22:41:14.115Z,3.87
2019-05-22T22:43:46.855Z,3.70
2019-05-22T22:46:23.888Z,4.00
2019-05-22T22:48:55.987Z,5.57
2019-05-22T22:51:26.116Z,4.60
2019-05-22T22:53:57.579Z,4.10
2019-05-22T22:56:28.711Z,4.37
2019-05-22T22:58:59.433Z,3.80
2019-05-22T23:01:32.969Z,3.73
2019-05-22T23:04:05.356Z,3.87
2019-05-22T23:06:36.291Z,3.73
2019-05-22T23:09:08.182Z,3.87
2019-05-22T23:11:41.276Z,4.00
2019-05-22T23:14:11.628Z,4.07
2019-05-22T23:16:41.083Z,3.60
2019-05-22T23:19:14.851Z,3.20
2019-05-22T23:21:44.583Z,3.60
2019-05-22T23:24:14.575Z,3.67
2019-05-22T23:26:44.977Z,3.30
2019-05-22T23:29:16.903Z,3.33
2019-05-22T23:31:46.708Z,3.20
2019-05-22T23:34:20.601Z,3.23
2019-05-22T23:36:50.476Z,3.40
2019-05-22T23:39:20.520Z,3.00
2019-05-22T23:41:51.718Z,3.50
2019-05-22T23:44:23.464Z,3.03
2019-05-22T23:46:53.637Z,3.40
2019-05-22T23:49:23.609Z,2.90
2019-05-22T23:51:53.455Z,3.60
2019-05-22T23:54:24.131Z,3.03
2019-05-22T23:56:54.095Z,3.20
2019-05-22T23:59:24.046Z,3.20
